Terminal Aerodrome Forecast
Issued by NWS Wilmington, OH

Current Version | Previous Version | Graphics & Text | Print | Product List | Glossary On
Versions: 1 2 3 4 5 6 7 8 9 10 11 12 13 14 15 16 17
000
FTUS41 KILN 281300 AAA
TAFILN
TAF AMD
KILN 281341Z 2814/2912 20012KT P6SM SCT050 OVC200
     FM281500 21012G20KT P6SM VCSH BKN040 OVC250
     FM281700 23012KT 5SM -SHRA BR SCT025 OVC040
     FM281900 24011KT P6SM SCT040 OVC080
     FM282100 26009KT P6SM BKN100 BKN200
     FM290100 28007KT P6SM SCT200=

USA.gov is the U.S. government's official web portal to all federal, state and local government web resources and services.